Angola, LA (70712)

2:12 PM CDT on August 29, 2015 (GMT -0500)
False River | | Change Station
CLOSE
Current Station
Airport
Location: New Roads False River Regiona,
Elevation: 39 ft
Nearby Weather Stations

Elev 39 ft 30.72 °N, 91.48 °W | Updated 17 minutes ago

Partly Cloudy
Partly Cloudy
88 °F
Feels Like 91 °F
N
6
Wind Variable Wind from ENE

Today
High -- | Low -- °F
--% Chance of Precip.
Yesterday
High -- | Low -- °F
Precip. -- in
6:40 AM 7:33 PM
Full, 100% visible
Pressure 30.04 in
Visibility 10.0 miles
Clouds Scattered Clouds 5000 ft
Heat Index 91 °F
Dew Point 66 °F
Humidity 48%
Rainfall 0.00 in
Snow Depth Not available.
UV 10 out of 12
Pollen 7.40 out of 12
Air Quality Not available.
Flu Activity Not available.
METAR KHZR 291855Z AUTO 07005KT 10SM SCT050 31/19 A3004 RMK AO2 T03120190
Pressure 30.04 in
Visibility 10.0 miles
Clouds Scattered Clouds 5000 ft
Heat Index 91 °F
Dew Point 66 °F
Humidity 48%
Rainfall 0.00 in
Snow Depth Not available.
UV 10 out of 12
Pollen 7.40 out of 12
Air Quality Not available.
Flu Activity Not available.
METAR KHZR 291855Z AUTO 07005KT 10SM SCT050 31/19 A3004 RMK AO2 T03120190

10-Day Weather Forecast

×

Almanac

Astronomy

Aug. 29, 2015 Rise Set
Actual Time
Civil Twilight
Nautical Twilight
Astronomical Twilight
Moon
Length of Visible Light
Length of Day
Tomorrow will be .
, % of the Moon is Illuminated

Today's Extremes

State Highs State Lows

Community

WunderPhotos

Upload Photos

1,850,778 photos uploaded!

WunderBlogs® & News

Nearby

Air Quality

  Air Quality AQ Index Pollutant
Not available.

Snow Depth

Station Depth Elevation

Earthquake Activity

City Distance Mag. Time & Date
Minimum magnitude displayed is 2.5.

Coastal Water Temperatures

Place Temperature

Stations

Nearby Weather Stations

Station Location Temp. Windchill Dew Point Humidity Wind Precip. Elev Updated Type